Time;durP1;ratioP1;P1;durP2;ratioP2;P2;SDS_P1;SDS_P2;PMS_P1;PMS_P2;Temp;Humidity;BMP_temperature;BMP_pressure;BME280_temperature;BME280_humidity;BME280_pressure;Samples;Min_cycle;Max_cycle;Signal;HPM_P1;HPM_P2
2022/09/25 00:00:56;;;;;;;16.07;14.47;;;16.80;99.90;;;;;;5031289;28;20936;-74
2022/09/25 00:03:25;;;;;;;17.50;15.00;;;16.80;99.90;;;;;;5031348;28;20849;-72
2022/09/25 00:05:54;;;;;;;14.73;13.23;;;16.90;99.90;;;;;;5031510;28;20564;-74
2022/09/25 00:08:28;;;;;;;15.03;13.60;;;16.90;99.90;;;;;;5014870;28;20946;-73
2022/09/25 00:10:54;;;;;;;18.37;15.13;;;16.80;99.90;;;;;;5031180;28;20565;-73
2022/09/25 00:13:20;;;;;;;17.30;15.50;;;16.90;99.90;;;;;;5031538;28;20581;-73
2022/09/25 00:15:48;;;;;;;16.67;15.00;;;16.90;99.90;;;;;;5014713;28;20590;-73
2022/09/25 00:18:14;;;;;;;15.10;13.60;;;16.90;99.90;;;;;;5030684;28;20987;-73
2022/09/25 00:20:40;;;;;;;16.73;15.03;;;16.80;99.90;;;;;;5012912;28;20930;-74
2022/09/25 00:23:06;;;;;;;17.07;15.00;;;16.80;99.90;;;;;;5031069;28;20624;-74
2022/09/25 00:25:32;;;;;;;17.77;15.40;;;16.90;99.90;;;;;;5031216;28;20986;-74
2022/09/25 00:27:58;;;;;;;17.63;15.73;;;16.90;99.90;;;;;;5031179;28;20196;-73
2022/09/25 00:30:24;;;;;;;16.90;15.10;;;16.80;99.90;;;;;;5013283;28;20157;-73
2022/09/25 00:32:50;;;;;;;14.20;12.43;;;16.90;99.90;;;;;;5031119;28;21053;-73
2022/09/25 00:35:15;;;;;;;16.07;14.40;;;16.80;99.90;;;;;;5013790;28;20205;-73
2022/09/25 00:37:41;;;;;;;15.40;13.80;;;16.80;99.90;;;;;;5013473;28;20251;-74
2022/09/25 00:40:08;;;;;;;16.03;14.43;;;16.80;99.90;;;;;;5013217;28;20177;-73
2022/09/25 00:42:35;;;;;;;16.37;14.67;;;16.80;99.90;;;;;;5013324;28;20513;-73
2022/09/25 00:45:05;;;;;;;17.07;14.60;;;16.80;99.90;;;;;;5031082;28;20637;-73
2022/09/25 00:48:01;;;;;;;16.50;14.03;;;16.80;99.90;;;;;;5030991;28;20572;-74
2022/09/25 00:50:35;;;;;;;15.30;13.87;;;16.70;99.90;;;;;;5030957;28;20572;-73
2022/09/25 00:53:10;;;;;;;14.20;12.80;;;16.70;99.90;;;;;;5031114;28;20568;-74
2022/09/25 00:55:39;;;;;;;14.90;13.40;;;16.70;99.90;;;;;;4997074;28;21188;-74
2022/09/25 00:58:05;;;;;;;17.20;15.40;;;16.60;99.90;;;;;;5030767;28;20671;-73
2022/09/25 01:00:32;;;;;;;15.00;13.40;;;16.60;99.90;;;;;;5013466;28;21031;-73
2022/09/25 01:02:58;;;;;;;17.53;15.73;;;16.50;99.90;;;;;;5030786;28;20612;-73
2022/09/25 01:05:31;;;;;;;16.00;14.50;;;16.50;99.90;;;;;;4996906;28;20561;-73
2022/09/25 01:08:00;;;;;;;14.70;13.30;;;16.40;99.90;;;;;;5013034;28;20600;-73
2022/09/25 01:10:27;;;;;;;17.30;15.50;;;16.40;99.90;;;;;;5030614;28;20564;-74
2022/09/25 01:12:56;;;;;;;14.83;13.37;;;16.40;99.90;;;;;;5013131;28;20592;-73
2022/09/25 01:15:38;;;;;;;17.37;14.50;;;16.30;99.90;;;;;;5030821;28;20578;-73
2022/09/25 01:18:42;;;;;;;17.33;15.73;;;16.30;99.90;;;;;;5030831;28;20603;-73
2022/09/25 01:21:37;;;;;;;19.83;16.53;;;16.20;99.90;;;;;;5012649;28;20576;-73
2022/09/25 01:24:08;;;;;;;16.33;14.73;;;16.20;99.90;;;;;;5017553;28;20687;-73
2022/09/25 01:26:40;;;;;;;16.30;14.70;;;16.20;99.90;;;;;;5030667;28;20564;-73
2022/09/25 01:29:22;;;;;;;18.70;16.80;;;16.10;99.90;;;;;;4996617;28;20609;-74
2022/09/25 01:32:04;;;;;;;18.93;17.03;;;16.10;99.90;;;;;;5033600;28;21142;-74
2022/09/25 01:34:42;;;;;;;19.77;17.67;;;16.10;99.90;;;;;;5017049;28;20594;-73
2022/09/25 01:37:28;;;;;;;17.47;15.70;;;16.10;99.90;;;;;;5034170;28;20976;-74
2022/09/25 01:40:18;;;;;;;15.17;13.73;;;16.00;99.90;;;;;;5033857;28;20707;-74
2022/09/25 01:43:00;;;;;;;12.93;11.73;;;16.00;99.90;;;;;;5033912;28;20713;-73
2022/09/25 01:45:37;;;;;;;16.47;14.83;;;16.00;99.90;;;;;;5016458;28;20579;-73
2022/09/25 01:48:07;;;;;;;17.77;15.97;;;16.00;99.90;;;;;;5033974;28;20757;-73
2022/09/25 01:51:23;;;;;;;16.43;14.73;;;16.00;99.90;;;;;;5033755;28;20617;-73
2022/09/25 01:53:57;;;;;;;17.10;15.50;;;16.00;99.90;;;;;;5028405;28;20616;-73
2022/09/25 01:56:32;;;;;;;17.20;15.40;;;16.00;99.90;;;;;;5016046;28;20572;-74
2022/09/25 01:59:13;;;;;;;16.33;14.60;;;16.00;99.90;;;;;;5015697;28;20623;-73
2022/09/25 02:01:41;;;;;;;15.77;14.17;;;16.00;99.90;;;;;;5033681;28;20564;-73
2022/09/25 02:04:22;;;;;;;17.87;16.07;;;16.00;99.90;;;;;;5016018;28;20714;-73
2022/09/25 02:06:50;;;;;;;17.27;15.27;;;16.00;99.90;;;;;;5017268;28;20557;-73
2022/09/25 02:09:32;;;;;;;17.73;16.03;;;16.00;99.90;;;;;;5033154;28;20596;-73
2022/09/25 02:12:03;;;;;;;17.50;15.77;;;16.00;99.90;;;;;;5015735;28;20603;-73
2022/09/25 02:14:39;;;;;;;16.17;14.03;;;16.00;99.90;;;;;;5033471;28;20564;-73
2022/09/25 02:17:11;;;;;;;14.70;13.30;;;16.00;99.90;;;;;;5033305;28;20568;-73
2022/09/25 02:22:30;;;;;;;16.47;14.87;;;15.90;99.90;;;;;;5033178;28;21179;-74
2022/09/25 02:25:05;;;;;;;17.40;13.83;;;15.90;99.90;;;;;;5033262;28;20563;-73
2022/09/25 02:27:32;;;;;;;13.97;12.37;;;15.90;99.90;;;;;;5015520;28;20663;-74
2022/09/25 02:29:59;;;;;;;17.50;14.13;;;15.80;99.90;;;;;;5032995;28;20577;-74
2022/09/25 02:32:29;;;;;;;15.60;13.67;;;15.80;99.90;;;;;;5032927;28;20170;-73
2022/09/25 02:34:56;;;;;;;15.30;13.10;;;15.80;99.90;;;;;;5033357;28;20603;-74
2022/09/25 02:37:22;;;;;;;14.93;12.90;;;15.80;99.90;;;;;;5033033;28;21026;-73
2022/09/25 02:39:53;;;;;;;12.03;10.83;;;15.70;99.90;;;;;;5015061;28;21198;-73
2022/09/25 02:42:37;;;;;;;19.60;13.60;;;15.70;99.90;;;;;;5016321;28;20678;-73
2022/09/25 02:45:37;;;;;;;14.67;12.30;;;15.70;99.90;;;;;;5015311;28;20909;-73
2022/09/25 02:48:28;;;;;;;13.27;11.10;;;15.70;99.90;;;;;;5032875;28;20588;-73
2022/09/25 02:51:15;;;;;;;11.53;10.27;;;15.70;99.90;;;;;;5032574;28;20610;-74
2022/09/25 02:53:49;;;;;;;13.00;9.90;;;15.60;99.90;;;;;;5032761;28;20600;-74
2022/09/25 02:56:29;;;;;;;14.80;11.70;;;15.60;99.90;;;;;;5032834;28;20561;-73
2022/09/25 02:59:00;;;;;;;14.10;11.13;;;15.70;99.90;;;;;;5032789;28;20714;-74
2022/09/25 03:01:30;;;;;;;15.00;10.63;;;15.60;99.90;;;;;;5032223;28;20802;-73
2022/09/25 03:03:58;;;;;;;9.73;8.73;;;15.60;99.90;;;;;;5032606;28;20574;-73
2022/09/25 03:06:27;;;;;;;12.67;8.60;;;15.60;99.90;;;;;;5032510;28;20965;-74
2022/09/25 03:08:55;;;;;;;8.27;7.10;;;15.60;99.90;;;;;;5032321;28;20608;-73
2022/09/25 03:11:23;;;;;;;8.20;7.00;;;15.60;99.90;;;;;;5032067;28;20573;-73
2022/09/25 03:14:15;;;;;;;7.63;6.63;;;15.60;99.90;;;;;;5032247;28;20600;-73
2022/09/25 03:16:51;;;;;;;8.10;6.10;;;15.60;99.90;;;;;;5028605;28;20589;-73
2022/09/25 03:19:20;;;;;;;9.73;6.87;;;15.60;99.90;;;;;;5035327;28;20600;-73
2022/09/25 03:21:47;;;;;;;8.30;5.87;;;15.60;99.90;;;;;;5032032;28;21179;-74
2022/09/25 03:24:16;;;;;;;8.97;5.40;;;15.60;99.90;;;;;;5014488;28;20639;-73
2022/09/25 03:26:42;;;;;;;14.73;6.33;;;15.60;99.90;;;;;;5032079;28;20568;-74
2022/09/25 03:29:08;;;;;;;5.93;5.00;;;15.60;99.90;;;;;;5032168;28;20702;-74
2022/09/25 03:31:34;;;;;;;9.93;5.10;;;15.60;99.90;;;;;;5031746;28;20923;-73
2022/09/25 03:34:00;;;;;;;4.70;3.53;;;15.60;99.90;;;;;;5031898;28;20590;-73
2022/09/25 03:36:28;;;;;;;10.77;4.70;;;15.60;99.90;;;;;;5031883;28;20704;-74
2022/09/25 03:38:57;;;;;;;7.40;5.13;;;15.60;99.90;;;;;;5014241;28;20604;-74
2022/09/25 03:41:26;;;;;;;6.97;4.60;;;15.60;99.90;;;;;;5031453;28;20565;-74
2022/09/25 03:43:52;;;;;;;7.27;5.23;;;15.60;99.90;;;;;;5031727;28;20568;-74
2022/09/25 03:46:27;;;;;;;7.00;4.67;;;15.60;99.90;;;;;;5031749;28;20759;-74
2022/09/25 03:48:55;;;;;;;10.50;4.90;;;15.60;99.90;;;;;;5013951;28;20197;-74
2022/09/25 03:51:22;;;;;;;10.43;4.60;;;15.70;99.90;;;;;;5031361;28;20614;-74
2022/09/25 03:53:49;;;;;;;7.97;4.10;;;15.60;99.90;;;;;;5031559;28;20616;-74
2022/09/25 03:56:19;;;;;;;6.87;4.90;;;15.60;99.90;;;;;;5032745;28;20979;-73
2022/09/25 03:58:45;;;;;;;6.03;3.40;;;15.60;99.90;;;;;;5031308;28;20619;-74
2022/09/25 04:01:11;;;;;;;7.03;3.40;;;15.60;99.90;;;;;;5013577;28;20610;-74
2022/09/25 04:03:38;;;;;;;6.93;4.43;;;15.70;99.90;;;;;;4997471;28;20620;-74
2022/09/25 04:06:06;;;;;;;5.90;2.30;;;15.70;99.90;;;;;;5031553;28;20564;-74
2022/09/25 04:08:34;;;;;;;6.93;3.00;;;15.70;99.90;;;;;;5013713;28;20592;-74
2022/09/25 04:11:00;;;;;;;3.83;1.50;;;15.60;99.90;;;;;;5013497;28;20583;-74
2022/09/25 04:13:29;;;;;;;4.00;1.90;;;15.60;99.90;;;;;;5031300;28;20904;-73
2022/09/25 04:15:56;;;;;;;4.27;2.40;;;15.60;99.90;;;;;;5013433;28;21190;-74
2022/09/25 04:18:23;;;;;;;4.90;2.73;;;15.60;99.90;;;;;;5031339;28;20596;-74
2022/09/25 04:20:49;;;;;;;4.93;2.77;;;15.60;99.90;;;;;;5031022;28;20932;-74
2022/09/25 04:23:16;;;;;;;3.67;2.00;;;15.60;99.90;;;;;;5013493;28;20730;-74
2022/09/25 04:25:44;;;;;;;3.60;1.90;;;15.60;99.90;;;;;;5031199;28;20599;-74
2022/09/25 04:28:10;;;;;;;5.90;1.77;;;15.60;99.90;;;;;;5031319;28;20603;-74
2022/09/25 04:30:36;;;;;;;2.53;1.43;;;15.50;99.90;;;;;;5013288;28;21148;-74
2022/09/25 04:35:46;;;;;;;7.37;2.10;;;15.50;99.90;;;;;;5031199;28;20280;-74
2022/09/25 04:38:12;;;;;;;4.00;1.50;;;15.50;99.90;;;;;;5031072;28;20632;-74
2022/09/25 04:40:37;;;;;;;3.10;1.67;;;15.50;99.90;;;;;;5013316;28;20646;-74
2022/09/25 04:43:05;;;;;;;4.83;1.90;;;15.50;99.90;;;;;;5030829;28;20722;-73
2022/09/25 04:45:34;;;;;;;8.40;1.60;;;15.50;99.90;;;;;;5031152;28;20227;-74
2022/09/25 04:48:00;;;;;;;6.03;1.50;;;15.50;99.90;;;;;;4996931;28;21258;-75
2022/09/25 04:50:27;;;;;;;3.07;1.27;;;15.50;99.90;;;;;;5030887;28;21182;-73
2022/09/25 04:53:01;;;;;;;4.03;1.30;;;15.50;99.90;;;;;;5031034;28;21116;-73
2022/09/25 04:55:27;;;;;;;7.83;1.90;;;15.50;99.90;;;;;;5031044;28;20586;-74
2022/09/25 04:57:55;;;;;;;4.40;1.40;;;15.40;99.90;;;;;;5012963;28;20620;-72
2022/09/25 05:00:23;;;;;;;6.23;1.47;;;15.40;99.90;;;;;;5030716;28;20568;-73
2022/09/25 05:02:49;;;;;;;13.10;2.87;;;15.40;99.90;;;;;;5030824;28;20620;-73
2022/09/25 05:05:15;;;;;;;4.50;1.87;;;15.40;99.90;;;;;;5031916;28;20599;-73
2022/09/25 05:07:54;;;;;;;5.67;1.80;;;15.40;99.90;;;;;;5017084;28;20560;-73
2022/09/25 05:10:22;;;;;;;5.80;1.30;;;15.40;99.90;;;;;;5035348;28;20567;-73
2022/09/25 05:12:53;;;;;;;4.00;1.60;;;15.40;99.90;;;;;;5017108;28;20580;-73
2022/09/25 05:15:19;;;;;;;3.27;1.50;;;15.40;99.90;;;;;;5034576;28;20667;-73
2022/09/25 05:17:45;;;;;;;4.43;1.60;;;15.30;99.90;;;;;;5016622;28;20591;-73
2022/09/25 05:20:11;;;;;;;5.80;1.50;;;15.40;99.90;;;;;;5016663;28;20564;-73
2022/09/25 05:22:37;;;;;;;4.53;1.87;;;15.30;99.90;;;;;;5034331;28;20689;-74
2022/09/25 05:25:04;;;;;;;5.93;1.47;;;15.40;99.90;;;;;;5000326;28;20201;-73
2022/09/25 05:27:32;;;;;;;3.20;1.13;;;15.30;99.90;;;;;;5034376;28;20165;-73
2022/09/25 05:29:58;;;;;;;4.73;1.43;;;15.30;99.90;;;;;;5034091;28;20627;-73
2022/09/25 05:32:24;;;;;;;6.40;1.30;;;15.40;99.90;;;;;;5034138;28;20595;-74
2022/09/25 05:34:50;;;;;;;4.07;1.40;;;15.40;99.90;;;;;;5034396;28;20572;-74
2022/09/25 05:37:16;;;;;;;5.03;1.47;;;15.30;99.90;;;;;;5034382;28;20173;-74
2022/09/25 05:39:41;;;;;;;4.33;1.00;;;15.40;99.90;;;;;;5033855;28;20712;-74
2022/09/25 05:42:07;;;;;;;4.00;1.93;;;15.30;99.90;;;;;;5034035;28;20966;-75
2022/09/25 05:44:33;;;;;;;3.33;1.17;;;15.40;99.90;;;;;;5034044;28;20671;-75
2022/09/25 05:46:59;;;;;;;2.77;1.20;;;15.30;99.90;;;;;;5034755;28;20600;-74
2022/09/25 05:49:25;;;;;;;5.00;1.00;;;15.30;99.90;;;;;;5036762;28;20224;-74
2022/09/25 05:51:50;;;;;;;4.03;1.10;;;15.30;99.90;;;;;;5033970;28;20193;-74
2022/09/25 05:54:16;;;;;;;2.57;0.90;;;15.40;99.90;;;;;;5016448;28;20253;-74
2022/09/25 05:56:42;;;;;;;10.63;1.90;;;15.30;99.90;;;;;;5033920;28;20200;-74
2022/09/25 05:59:08;;;;;;;3.10;1.10;;;15.30;99.90;;;;;;5033823;28;20217;-75
2022/09/25 06:01:34;;;;;;;6.53;1.40;;;15.30;99.90;;;;;;5033572;28;20193;-75
2022/09/25 06:03:59;;;;;;;3.30;1.57;;;15.20;99.90;;;;;;5016302;28;21127;-75
2022/09/25 06:06:25;;;;;;;4.33;0.90;;;15.20;99.90;;;;;;5033815;28;20165;-74
2022/09/25 06:08:53;;;;;;;2.77;0.90;;;15.20;99.90;;;;;;5015834;28;20216;-75
2022/09/25 06:11:18;;;;;;;4.27;1.00;;;15.10;99.90;;;;;;5033557;28;20623;-75
2022/09/25 06:13:49;;;;;;;3.73;1.00;;;15.10;99.90;;;;;;5033735;28;20974;-75
2022/09/25 06:16:18;;;;;;;5.50;1.50;;;15.00;99.90;;;;;;5033658;28;20182;-75
2022/09/25 06:18:46;;;;;;;3.83;1.00;;;15.00;99.90;;;;;;5033335;28;20651;-75
2022/09/25 06:21:12;;;;;;;4.40;1.67;;;15.00;99.90;;;;;;5015351;28;20232;-75
2022/09/25 06:23:38;;;;;;;8.60;1.20;;;14.90;99.90;;;;;;5015854;28;20624;-75
2022/09/25 06:26:05;;;;;;;6.77;1.10;;;14.90;99.90;;;;;;5022893;28;21064;-74
2022/09/25 06:28:31;;;;;;;2.60;1.10;;;14.90;99.90;;;;;;5033191;28;20602;-75
2022/09/25 06:31:01;;;;;;;7.93;1.40;;;14.90;99.90;;;;;;5032894;28;20572;-75
2022/09/25 06:33:27;;;;;;;5.90;1.25;;;14.90;99.90;;;;;;5033173;28;21239;-75
2022/09/25 06:35:53;;;;;;;4.13;1.30;;;14.80;99.90;;;;;;5033121;28;20257;-74
2022/09/25 06:38:18;;;;;;;6.73;2.50;;;14.80;99.90;;;;;;5032938;28;20200;-74
2022/09/25 06:40:44;;;;;;;4.53;1.20;;;14.80;99.90;;;;;;5032828;28;20185;-73
2022/09/25 06:43:12;;;;;;;4.70;1.37;;;14.80;99.90;;;;;;5015079;28;20201;-74
2022/09/25 06:45:38;;;;;;;6.33;1.67;;;14.80;99.90;;;;;;5015447;28;20170;-74
2022/09/25 06:48:12;;;;;;;2.88;1.30;;;14.80;99.90;;;;;;5015200;28;20620;-74
2022/09/25 06:50:54;;;;;;;5.20;1.30;;;14.90;99.90;;;;;;5032583;28;20174;-74
2022/09/25 06:53:22;;;;;;;4.87;1.93;;;14.90;99.90;;;;;;5032937;28;20184;-74
2022/09/25 06:55:48;;;;;;;5.47;1.53;;;14.90;99.90;;;;;;5032839;28;21265;-74
2022/09/25 06:58:18;;;;;;;4.80;1.50;;;14.90;99.90;;;;;;5032811;28;20615;-75
2022/09/25 07:00:48;;;;;;;4.90;1.40;;;14.90;99.90;;;;;;5015642;28;20667;-74
2022/09/25 07:06:02;;;;;;;5.07;1.63;;;15.00;99.90;;;;;;5032936;28;20571;-74
2022/09/25 07:08:28;;;;;;;5.67;1.23;;;15.10;99.90;;;;;;5032590;28;20197;-73
2022/09/25 07:11:21;;;;;;;6.47;1.80;;;15.10;99.90;;;;;;5014774;28;20553;-74
2022/09/25 07:13:53;;;;;;;5.27;1.20;;;15.20;99.90;;;;;;5012181;28;20592;-74
2022/09/25 07:16:21;;;;;;;3.37;1.70;;;15.20;99.90;;;;;;4998591;28;20563;-74
2022/09/25 07:18:47;;;;;;;6.73;1.50;;;15.30;99.90;;;;;;5014542;28;20706;-74
2022/09/25 07:21:17;;;;;;;5.37;1.80;;;15.30;99.90;;;;;;5031855;28;20675;-73
2022/09/25 07:23:47;;;;;;;4.63;1.75;;;15.40;99.90;;;;;;5014751;28;20987;-73
2022/09/25 07:26:22;;;;;;;6.93;1.57;;;15.60;99.90;;;;;;5032337;28;20166;-73
2022/09/25 07:28:59;;;;;;;4.30;1.20;;;15.70;99.90;;;;;;5031811;28;21148;-74
2022/09/25 07:31:28;;;;;;;3.23;1.10;;;15.90;99.90;;;;;;5032121;28;20659;-74
2022/09/25 07:33:54;;;;;;;6.43;1.30;;;16.00;99.90;;;;;;5031972;28;20565;-74
2022/09/25 07:36:20;;;;;;;8.00;1.50;;;16.10;99.90;;;;;;5032067;28;20634;-74
2022/09/25 07:38:51;;;;;;;5.03;1.70;;;16.20;99.90;;;;;;5014485;28;21199;-73
2022/09/25 07:41:17;;;;;;;3.43;1.10;;;16.20;99.90;;;;;;5014567;28;20584;-74
2022/09/25 07:43:43;;;;;;;6.37;1.40;;;16.30;99.90;;;;;;5014183;28;20652;-73
2022/09/25 07:46:10;;;;;;;4.83;1.33;;;16.40;99.90;;;;;;5032029;28;20669;-74
2022/09/25 07:48:36;;;;;;;6.30;1.10;;;16.60;99.90;;;;;;5031865;28;21132;-74
2022/09/25 07:51:04;;;;;;;8.20;1.40;;;17.10;99.90;;;;;;5034649;28;20581;-74
2022/09/25 07:53:30;;;;;;;4.47;1.70;;;17.80;99.90;;;;;;5031793;28;20180;-72
2022/09/25 07:56:00;;;;;;;3.90;1.23;;;18.40;99.90;;;;;;5031763;28;20626;-73
2022/09/25 07:58:27;;;;;;;3.07;1.10;;;18.90;99.90;;;;;;4997453;28;21028;-74
2022/09/25 08:00:58;;;;;;;4.00;0.90;;;19.80;99.90;;;;;;5031267;28;20565;-73
2022/09/25 08:03:24;;;;;;;5.80;1.60;;;20.70;99.90;;;;;;5031574;28;20620;-73
2022/09/25 08:05:58;;;;;;;7.13;1.40;;;21.50;99.90;;;;;;5014229;28;20640;-73
2022/09/25 08:08:25;;;;;;;6.70;0.97;;;21.90;99.90;;;;;;5031444;28;20600;-72
2022/09/25 08:10:50;;;;;;;2.97;0.80;;;22.10;99.90;;;;;;5013787;28;20635;-72
2022/09/25 08:13:19;;;;;;;4.43;0.90;;;22.20;99.90;;;;;;5031569;28;20675;-72
2022/09/25 08:15:45;;;;;;;3.70;1.10;;;22.20;99.90;;;;;;5032515;28;20583;-72
2022/09/25 08:18:11;;;;;;;7.33;1.60;;;22.10;99.90;;;;;;5031830;28;20611;-73
2022/09/25 08:20:39;;;;;;;5.13;1.47;;;21.90;99.90;;;;;;5031069;28;20610;-73
2022/09/25 08:23:06;;;;;;;4.60;0.77;;;21.80;99.90;;;;;;5013759;28;20201;-73
2022/09/25 08:25:31;;;;;;;7.50;3.10;;;21.70;99.90;;;;;;5031448;28;20575;-74
2022/09/25 08:27:57;;;;;;;5.80;1.10;;;21.70;99.90;;;;;;5031356;28;20588;-74
2022/09/25 08:30:23;;;;;;;3.03;0.87;;;22.00;99.90;;;;;;5031213;28;20166;-73
2022/09/25 08:32:51;;;;;;;3.57;1.10;;;22.40;99.90;;;;;;5031700;28;20188;-74
2022/09/25 08:35:17;;;;;;;3.70;0.70;;;22.70;99.90;;;;;;5031244;28;20572;-74
2022/09/25 08:37:47;;;;;;;4.53;1.13;;;22.80;99.90;;;;;;5031234;28;20572;-72
2022/09/25 08:40:18;;;;;;;5.30;1.00;;;22.90;99.90;;;;;;5032014;28;20567;-73
2022/09/25 08:42:47;;;;;;;3.83;1.07;;;22.90;99.90;;;;;;5035182;28;20612;-72
2022/09/25 08:51:17;;;;;;;6.13;0.90;;;23.90;99.90;;;;;;5034794;28;21123;-73
2022/09/25 08:53:44;;;;;;;4.73;0.87;;;24.00;99.90;;;;;;5017955;28;20564;-73
2022/09/25 08:56:18;;;;;;;4.57;0.80;;;24.00;99.90;;;;;;5035252;28;20577;-73
2022/09/25 08:59:01;;;;;;;6.80;1.10;;;24.10;99.90;;;;;;5034856;28;20616;-73
2022/09/25 09:01:43;;;;;;;1.77;0.70;;;24.70;99.90;;;;;;5034696;28;20688;-72
2022/09/25 09:04:37;;;;;;;3.23;0.80;;;25.60;99.90;;;;;;5034927;28;20937;-73
2022/09/25 09:07:09;;;;;;;3.97;1.00;;;26.40;99.80;;;;;;5014661;28;20679;-72
2022/09/25 09:09:45;;;;;;;2.40;0.80;;;27.30;99.90;;;;;;5034435;28;20596;-72
2022/09/25 09:12:18;;;;;;;5.20;0.70;;;27.80;99.90;;;;;;5034622;28;20616;-71
2022/09/25 09:14:48;;;;;;;6.03;1.23;;;27.80;99.90;;;;;;5034768;28;20572;-72
2022/09/25 09:17:22;;;;;;;3.60;0.80;;;27.50;99.90;;;;;;5034628;28;20970;-73
2022/09/25 09:19:52;;;;;;;5.43;1.10;;;26.80;96.90;;;;;;5034211;28;20673;-73
2022/09/25 09:22:28;;;;;;;3.10;1.00;;;26.10;96.20;;;;;;5034483;28;20624;-72
2022/09/25 09:24:57;;;;;;;3.00;0.80;;;25.40;96.30;;;;;;5034641;28;20564;-72
2022/09/25 09:27:40;;;;;;;3.23;0.80;;;24.70;96.60;;;;;;5016835;28;20571;-73
2022/09/25 09:30:11;;;;;;;3.00;0.90;;;24.10;97.60;;;;;;5034303;28;20622;-72
2022/09/25 09:32:49;;;;;;;2.73;0.80;;;24.00;99.90;;;;;;5016509;28;20699;-73
2022/09/25 09:35:58;;;;;;;4.70;1.10;;;24.50;99.90;;;;;;5000502;28;20556;-73
2022/09/25 09:38:44;;;;;;;2.50;0.80;;;25.30;99.90;;;;;;5034181;28;20600;-73
2022/09/25 09:41:15;;;;;;;2.23;0.80;;;26.30;99.90;;;;;;5034011;28;20569;-73
2022/09/25 09:44:02;;;;;;;4.80;0.80;;;27.10;99.90;;;;;;5016618;28;21070;-73
2022/09/25 09:46:44;;;;;;;2.20;0.70;;;27.90;98.00;;;;;;5034167;28;20567;-72
2022/09/25 09:49:38;;;;;;;3.00;0.70;;;28.80;99.60;;;;;;5034068;28;21193;-72
2022/09/25 09:52:16;;;;;;;3.73;0.70;;;29.80;98.20;;;;;;5033579;28;21033;-72
2022/09/25 09:55:02;;;;;;;2.40;0.70;;;30.60;94.90;;;;;;5016400;28;20568;-72
2022/09/25 09:57:35;;;;;;;2.60;0.60;;;30.90;91.40;;;;;;5034038;28;20668;-73
2022/09/25 10:00:14;;;;;;;3.20;0.90;;;31.00;89.20;;;;;;5033706;28;20569;-73
2022/09/25 10:02:48;;;;;;;2.67;0.60;;;30.90;85.50;;;;;;5033592;28;20623;-72
2022/09/25 10:05:29;;;;;;;3.13;0.80;;;31.00;84.20;;;;;;5033928;28;20974;-72
2022/09/25 10:07:55;;;;;;;4.03;0.90;;;30.90;80.20;;;;;;5033689;28;20703;-72
2022/09/25 10:10:27;;;;;;;4.00;1.07;;;30.60;79.90;;;;;;5033444;28;20998;-71
2022/09/25 10:12:54;;;;;;;2.33;0.70;;;30.40;76.50;;;;;;5033601;28;20216;-72
2022/09/25 10:15:31;;;;;;;2.00;0.70;;;30.30;76.80;;;;;;5015924;28;20572;-72
2022/09/25 10:18:00;;;;;;;2.63;0.70;;;30.20;76.50;;;;;;5033465;28;20659;-73
2022/09/25 10:20:35;;;;;;;1.73;0.60;;;30.20;76.10;;;;;;5033261;28;20561;-73
2022/09/25 10:23:04;;;;;;;2.83;0.70;;;30.00;73.80;;;;;;5015470;28;20711;-73
2022/09/25 10:25:37;;;;;;;2.10;0.60;;;29.80;71.00;;;;;;5033491;28;21128;-72
2022/09/25 10:28:27;;;;;;;1.90;0.70;;;29.40;69.40;;;;;;5033279;28;20608;-72
2022/09/25 10:30:55;;;;;;;3.93;0.73;;;29.20;70.70;;;;;;4989951;28;20581;-73
2022/09/25 10:33:23;;;;;;;2.67;0.70;;;28.90;70.10;;;;;;5032988;28;20576;-72
2022/09/25 10:35:52;;;;;;;2.10;1.10;;;28.80;70.40;;;;;;4999311;28;20602;-72
2022/09/25 10:38:24;;;;;;;2.10;0.57;;;28.60;69.00;;;;;;5015382;28;20642;-72
2022/09/25 10:41:04;;;;;;;3.30;0.60;;;28.50;69.70;;;;;;5032778;28;20634;-72
2022/09/25 10:43:30;;;;;;;2.53;0.70;;;28.40;68.40;;;;;;5033054;28;20622;-72
2022/09/25 10:46:06;;;;;;;3.30;0.90;;;28.30;68.20;;;;;;5032989;28;20920;-72
2022/09/25 10:51:20;;;;;;;2.50;0.70;;;27.80;67.70;;;;;;5032755;28;20657;-71
2022/09/25 10:53:51;;;;;;;2.77;1.00;;;27.70;68.50;;;;;;5037563;28;20571;-72
2022/09/25 10:56:37;;;;;;;1.40;0.60;;;27.60;68.00;;;;;;5015302;28;20679;-73
2022/09/25 10:59:15;;;;;;;2.30;0.60;;;27.40;65.60;;;;;;5032600;28;20721;-72
2022/09/25 11:01:46;;;;;;;1.70;0.55;;;27.20;64.50;;;;;;5033235;28;20652;-72
2022/09/25 11:04:15;;;;;;;5.20;0.80;;;26.80;63.40;;;;;;5014816;28;20568;-73
2022/09/25 11:06:45;;;;;;;4.93;0.90;;;26.50;63.20;;;;;;5032946;28;20606;-72
2022/09/25 11:09:21;;;;;;;2.17;0.97;;;26.20;64.00;;;;;;5032206;28;21182;-72
2022/09/25 11:11:48;;;;;;;1.80;0.50;;;26.00;64.70;;;;;;5032832;28;20561;-71
2022/09/25 11:14:31;;;;;;;2.03;0.60;;;25.80;65.50;;;;;;5032480;28;20560;-73
2022/09/25 11:16:59;;;;;;;3.10;0.70;;;25.50;64.50;;;;;;5014710;28;20576;-72
2022/09/25 11:19:29;;;;;;;2.37;0.60;;;25.30;64.30;;;;;;5014492;28;20592;-71
2022/09/25 11:21:58;;;;;;;2.37;0.60;;;25.10;64.60;;;;;;5032334;28;20557;-73
2022/09/25 11:24:58;;;;;;;2.27;0.63;;;25.00;65.70;;;;;;5032380;28;21199;-71
2022/09/25 11:27:30;;;;;;;3.13;0.80;;;25.00;66.90;;;;;;5032311;28;20561;-72
2022/09/25 11:30:09;;;;;;;3.90;0.60;;;25.20;67.90;;;;;;5031977;28;20657;-72
2022/09/25 11:32:43;;;;;;;3.63;0.90;;;25.10;65.50;;;;;;5014333;28;20588;-73
2022/09/25 11:35:23;;;;;;;3.30;0.70;;;25.10;66.00;;;;;;5032232;28;20569;-72
2022/09/25 11:38:15;;;;;;;2.47;0.60;;;25.00;66.20;;;;;;5032125;28;20569;-73
2022/09/25 11:41:13;;;;;;;3.00;0.60;;;25.10;67.90;;;;;;5027930;28;21044;-73
2022/09/25 11:44:07;;;;;;;2.40;0.60;;;25.30;67.10;;;;;;5014323;28;20627;-72
2022/09/25 11:47:00;;;;;;;2.93;0.70;;;25.70;69.50;;;;;;5014260;28;20576;-73
2022/09/25 11:49:33;;;;;;;2.27;0.60;;;26.00;68.10;;;;;;5028458;28;20624;-72
2022/09/25 11:52:05;;;;;;;2.17;0.70;;;26.20;65.30;;;;;;5031027;28;21032;-73
2022/09/25 11:54:59;;;;;;;1.53;0.40;;;26.20;58.10;;;;;;5031879;28;20201;-73
2022/09/25 11:58:02;;;;;;;2.30;0.60;;;26.30;61.30;;;;;;5014093;28;20973;-72
2022/09/25 12:00:53;;;;;;;1.90;0.70;;;26.70;61.40;;;;;;5030325;28;20697;-73
2022/09/25 12:03:40;;;;;;;1.80;0.70;;;26.80;55.00;;;;;;4997144;28;20733;-72
2022/09/25 12:06:31;;;;;;;2.23;0.70;;;27.10;58.00;;;;;;5031719;28;20165;-73
2022/09/25 12:09:02;;;;;;;3.00;0.80;;;27.30;58.50;;;;;;5030615;28;20710;-72
2022/09/25 12:12:00;;;;;;;2.37;0.60;;;27.00;54.50;;;;;;5031232;28;20252;-73
2022/09/25 12:14:30;;;;;;;2.53;0.70;;;26.80;56.00;;;;;;5031438;28;20565;-72
2022/09/25 12:16:59;;;;;;;3.60;0.73;;;26.50;55.70;;;;;;5031548;28;20647;-72
2022/09/25 12:19:27;;;;;;;2.37;0.60;;;26.10;57.40;;;;;;5031264;28;20593;-71
2022/09/25 12:22:19;;;;;;;2.80;0.60;;;25.90;56.70;;;;;;5031188;28;20987;-72
2022/09/25 12:25:05;;;;;;;3.60;0.70;;;25.70;56.00;;;;;;5029028;28;20595;-72
2022/09/25 12:27:34;;;;;;;2.77;0.60;;;25.50;57.80;;;;;;5013566;28;20625;-72
2022/09/25 12:30:19;;;;;;;1.60;0.60;;;25.50;58.30;;;;;;5030890;28;20565;-72
2022/09/25 12:32:50;;;;;;;3.77;0.90;;;25.30;57.90;;;;;;5013386;28;21057;-73
2022/09/25 12:35:39;;;;;;;2.93;1.00;;;25.20;58.30;;;;;;5031218;28;20967;-73
2022/09/25 12:38:37;;;;;;;2.80;0.70;;;25.10;58.20;;;;;;5013533;28;20959;-72
2022/09/25 12:41:57;;;;;;;2.03;0.70;;;24.90;57.50;;;;;;5013382;28;21067;-72
2022/09/25 12:44:34;;;;;;;3.90;0.80;;;24.60;58.00;;;;;;4969928;28;20626;-71
2022/09/25 12:47:04;;;;;;;1.90;0.90;;;24.30;57.80;;;;;;5022982;28;20584;-71
2022/09/25 12:49:39;;;;;;;2.17;0.80;;;24.00;58.10;;;;;;5013164;28;20622;-72
2022/09/25 12:52:38;;;;;;;4.20;0.90;;;23.70;57.50;;;;;;5030828;28;20651;-71
2022/09/25 12:55:18;;;;;;;3.90;1.07;;;23.30;57.60;;;;;;5019707;28;20592;-72
2022/09/25 12:57:47;;;;;;;2.10;0.77;;;22.90;57.70;;;;;;5030944;28;20642;-72
2022/09/25 13:00:22;;;;;;;3.20;0.90;;;22.50;58.00;;;;;;5012955;28;20695;-71
2022/09/25 13:03:22;;;;;;;4.87;1.10;;;22.30;58.80;;;;;;5031489;28;20642;-77
2022/09/25 13:06:06;;;;;;;3.70;1.00;;;22.10;59.80;;;;;;5013367;28;20556;-76
2022/09/25 13:08:47;;;;;;;1.60;0.80;;;22.00;60.00;;;;;;5031099;28;20682;-77
2022/09/25 13:11:31;;;;;;;3.57;0.77;;;22.00;60.00;;;;;;5033470;28;20590;-78
2022/09/25 13:14:00;;;;;;;2.80;1.00;;;21.90;59.90;;;;;;5036288;28;20575;-77
2022/09/25 13:16:26;;;;;;;2.13;0.80;;;21.80;59.70;;;;;;5031188;28;21133;-77
2022/09/25 13:19:12;;;;;;;2.07;0.80;;;21.70;59.60;;;;;;5013577;28;20754;-77
2022/09/25 13:21:41;;;;;;;2.10;0.80;;;21.60;59.80;;;;;;5030843;28;20576;-77
2022/09/25 13:24:14;;;;;;;2.37;0.97;;;21.60;59.70;;;;;;5013233;28;20647;-77
2022/09/25 13:26:49;;;;;;;2.40;0.90;;;21.50;59.30;;;;;;5032380;28;20630;-77
2022/09/25 13:29:42;;;;;;;2.37;1.23;;;21.40;59.40;;;;;;5034198;28;20603;-77